createdAt,value
2018-02-19T00:01:25.140Z,12.77
2018-02-19T00:04:05.145Z,14.20
2018-02-19T00:09:48.874Z,15.00
2018-02-19T00:12:29.254Z,17.10
2018-02-19T00:15:02.085Z,15.43
2018-02-19T00:17:31.164Z,15.13
2018-02-19T00:20:06.248Z,15.23
2018-02-19T00:22:41.064Z,19.00
2018-02-19T00:25:11.144Z,15.07
2018-02-19T00:27:50.624Z,16.70
2018-02-19T00:30:25.088Z,14.00
2018-02-19T00:33:00.896Z,16.13
2018-02-19T00:35:30.043Z,16.57
2018-02-19T00:38:09.125Z,21.00
2018-02-19T00:43:40.685Z,14.70
2018-02-19T00:46:09.860Z,16.30
2018-02-19T00:48:42.832Z,18.70
2018-02-19T00:51:11.007Z,19.00
2018-02-19T00:53:39.281Z,16.30
2018-02-19T00:56:07.547Z,15.90
2018-02-19T00:58:36.488Z,15.90
2018-02-19T01:01:08.931Z,15.27
2018-02-19T01:03:39.622Z,18.37
2018-02-19T01:06:14.280Z,14.50
2018-02-19T01:08:48.106Z,15.77
2018-02-19T01:11:16.266Z,13.83
2018-02-19T01:16:50.189Z,16.23
2018-02-19T01:22:19.234Z,13.23
2018-02-19T01:24:47.411Z,14.33
2018-02-19T01:27:20.111Z,12.90
2018-02-19T01:29:50.248Z,13.27
2018-02-19T01:32:18.432Z,13.53
2018-02-19T01:35:05.472Z,14.50
2018-02-19T01:37:35.154Z,16.90
2018-02-19T01:40:06.951Z,13.63
2018-02-19T01:42:35.971Z,15.77
2018-02-19T01:45:06.095Z,12.80
2018-02-19T01:47:34.234Z,15.70
2018-02-19T01:53:33.404Z,14.90
2018-02-19T01:56:01.517Z,15.60
2018-02-19T01:58:32.384Z,14.17
2018-02-19T02:01:11.671Z,16.37
2018-02-19T02:03:39.808Z,13.77
2018-02-19T02:09:12.011Z,13.90
2018-02-19T02:11:43.032Z,17.03
2018-02-19T02:14:11.188Z,17.43
2018-02-19T02:17:00.995Z,18.20
2018-02-19T02:19:35.348Z,19.90
2018-02-19T02:22:15.883Z,14.77
2018-02-19T02:24:46.031Z,12.80
2018-02-19T02:27:24.116Z,12.50
2018-02-19T02:29:53.000Z,13.90
2018-02-19T02:32:25.768Z,16.50
2018-02-19T02:35:05.596Z,13.80
2018-02-19T02:37:46.210Z,18.77
2018-02-19T02:40:16.343Z,13.73
2018-02-19T02:42:50.264Z,14.90
2018-02-19T02:45:36.808Z,19.27
2018-02-19T02:48:08.965Z,15.10
2018-02-19T02:50:37.168Z,14.10
2018-02-19T02:53:05.352Z,19.20
2018-02-19T02:55:38.415Z,14.13
2018-02-19T02:58:08.261Z,15.97
2018-02-19T03:00:56.129Z,13.40
2018-02-19T03:03:24.319Z,15.33
2018-02-19T03:05:52.455Z,16.30
2018-02-19T03:08:29.322Z,12.37
2018-02-19T03:10:58.376Z,15.37
2018-02-19T03:13:26.529Z,17.50
2018-02-19T03:15:55.559Z,15.83
2018-02-19T03:18:29.109Z,13.10
2018-02-19T03:21:00.762Z,15.07
2018-02-19T03:23:30.857Z,17.17
2018-02-19T03:25:59.124Z,14.10
2018-02-19T03:28:27.229Z,16.07
2018-02-19T03:31:05.332Z,16.27
2018-02-19T03:33:36.320Z,14.00
2018-02-19T03:36:10.308Z,21.97
2018-02-19T03:39:03.894Z,15.67
2018-02-19T03:41:35.747Z,16.30
2018-02-19T03:44:03.956Z,15.50
2018-02-19T03:46:32.103Z,15.70
2018-02-19T03:49:02.293Z,14.83
2018-02-19T03:51:34.095Z,15.60
2018-02-19T03:54:03.043Z,14.40
2018-02-19T03:59:36.680Z,20.67
2018-02-19T04:02:14.468Z,17.70
2018-02-19T04:04:43.397Z,15.33
2018-02-19T04:07:13.567Z,15.73
2018-02-19T04:09:44.508Z,15.80
2018-02-19T04:12:17.289Z,17.10
2018-02-19T04:14:45.412Z,17.50
2018-02-19T04:17:24.644Z,14.73
2018-02-19T04:19:52.732Z,15.07
2018-02-19T04:22:21.851Z,17.70
2018-02-19T04:24:50.003Z,14.83
2018-02-19T04:27:33.309Z,19.53
2018-02-19T04:30:02.214Z,17.87
2018-02-19T04:32:42.952Z,18.73
2018-02-19T04:35:11.074Z,15.00
2018-02-19T04:37:44.655Z,16.83
2018-02-19T04:40:18.260Z,17.77
2018-02-19T04:43:08.758Z,18.90
2018-02-19T04:48:45.427Z,16.10
2018-02-19T04:51:14.602Z,14.77
2018-02-19T04:53:42.824Z,19.87
2018-02-19T04:59:14.043Z,16.60
2018-02-19T05:01:44.117Z,17.07
2018-02-19T05:04:29.861Z,14.27
2018-02-19T05:07:03.227Z,15.83
2018-02-19T05:09:36.248Z,18.00
2018-02-19T05:12:07.417Z,21.40
2018-02-19T05:14:37.511Z,19.63
2018-02-19T05:17:11.236Z,17.33
2018-02-19T05:19:43.167Z,17.10
2018-02-19T05:25:06.901Z,18.93
2018-02-19T05:27:56.047Z,18.10
2018-02-19T05:30:30.508Z,18.33
2018-02-19T05:32:59.643Z,17.17
2018-02-19T05:35:27.772Z,20.67
2018-02-19T05:37:55.976Z,18.50
2018-02-19T05:40:24.124Z,18.07
2018-02-19T05:46:07.401Z,21.23
2018-02-19T05:48:46.273Z,19.47
2018-02-19T05:51:14.373Z,20.47
2018-02-19T05:53:44.403Z,22.27
2018-02-19T05:56:13.315Z,23.27
2018-02-19T05:58:41.684Z,20.13
2018-02-19T06:01:09.846Z,21.07
2018-02-19T06:03:38.915Z,18.33
2018-02-19T06:06:07.069Z,18.63
2018-02-19T06:08:38.530Z,21.43
2018-02-19T06:11:11.790Z,18.27
2018-02-19T06:13:43.610Z,17.00
2018-02-19T06:16:12.608Z,22.67
2018-02-19T06:18:40.781Z,17.60
2018-02-19T06:21:09.789Z,20.23
2018-02-19T06:23:37.914Z,20.60
2018-02-19T06:26:06.128Z,19.13
2018-02-19T06:28:34.291Z,26.80
2018-02-19T06:31:06.129Z,19.53
2018-02-19T06:33:34.289Z,19.87
2018-02-19T06:36:03.811Z,20.80
2018-02-19T06:38:33.740Z,24.23
2018-02-19T06:41:01.915Z,18.20
2018-02-19T06:43:31.080Z,19.70
2018-02-19T06:45:59.174Z,22.33
2018-02-19T06:48:29.479Z,21.33
2018-02-19T06:50:59.704Z,19.37
2018-02-19T06:53:28.774Z,20.37
2018-02-19T06:55:58.892Z,21.30
2018-02-19T06:58:27.009Z,23.17
2018-02-19T07:00:55.280Z,20.70
2018-02-19T07:03:23.415Z,21.07
2018-02-19T07:05:51.528Z,21.80
2018-02-19T07:08:19.641Z,25.40
2018-02-19T07:13:42.757Z,21.27
2018-02-19T07:16:11.136Z,19.77
2018-02-19T07:18:39.250Z,20.00
2018-02-19T07:21:07.428Z,22.20
2018-02-19T07:23:36.055Z,18.33
2018-02-19T07:26:04.233Z,23.30
2018-02-19T07:28:32.383Z,21.27
2018-02-19T07:31:07.205Z,29.00
2018-02-19T07:33:36.302Z,25.67
2018-02-19T07:36:04.708Z,31.47
2018-02-19T07:38:32.951Z,20.30
2018-02-19T07:41:01.164Z,21.53
2018-02-19T07:43:30.310Z,20.13
2018-02-19T07:45:59.252Z,22.97
2018-02-19T07:48:27.409Z,25.73
2018-02-19T07:50:56.392Z,20.70
2018-02-19T07:53:25.560Z,23.63
2018-02-19T07:55:53.651Z,17.83
2018-02-19T07:58:22.016Z,28.70
2018-02-19T08:00:50.184Z,21.33
2018-02-19T08:03:18.367Z,24.10
2018-02-19T08:05:50.280Z,20.30
2018-02-19T08:08:18.573Z,20.20
2018-02-19T08:10:48.615Z,24.73
2018-02-19T08:13:16.830Z,19.83
2018-02-19T08:15:45.136Z,22.57
2018-02-19T08:18:14.257Z,27.13
2018-02-19T08:20:42.455Z,22.73
2018-02-19T08:23:10.595Z,23.73
2018-02-19T08:25:38.754Z,25.27
2018-02-19T08:28:06.956Z,23.80
2018-02-19T08:30:37.052Z,21.90
2018-02-19T08:33:05.453Z,21.83
2018-02-19T08:35:33.789Z,22.67
2018-02-19T08:38:01.993Z,24.17
2018-02-19T08:40:33.651Z,21.70
2018-02-19T08:43:03.726Z,25.70
2018-02-19T08:45:32.760Z,20.93
2018-02-19T08:48:03.340Z,23.27
2018-02-19T08:50:31.433Z,25.43
2018-02-19T08:52:59.609Z,23.83
2018-02-19T08:55:28.019Z,24.73
2018-02-19T08:57:56.284Z,23.37
2018-02-19T09:00:24.509Z,30.03
2018-02-19T09:02:52.695Z,23.63
2018-02-19T09:05:20.833Z,32.30
2018-02-19T09:07:49.662Z,29.60
2018-02-19T09:10:18.861Z,24.90
2018-02-19T09:12:47.055Z,24.60
2018-02-19T09:15:29.281Z,27.00
2018-02-19T09:17:57.554Z,22.30
2018-02-19T09:20:25.687Z,24.57
2018-02-19T09:22:57.472Z,26.23
2018-02-19T09:25:27.988Z,30.57
2018-02-19T09:27:56.331Z,28.27
2018-02-19T09:30:24.482Z,27.03
2018-02-19T09:32:52.672Z,29.27
2018-02-19T09:35:20.850Z,24.63
2018-02-19T09:37:52.936Z,29.13
2018-02-19T09:40:24.344Z,34.00
2018-02-19T09:42:52.518Z,29.00
2018-02-19T09:45:24.123Z,32.73
2018-02-19T09:47:52.328Z,31.83
2018-02-19T09:50:20.568Z,30.13
2018-02-19T09:52:48.662Z,35.97
2018-02-19T09:55:17.876Z,29.10
2018-02-19T09:57:46.096Z,33.73
2018-02-19T10:00:14.254Z,30.90
2018-02-19T10:02:42.545Z,28.23
2018-02-19T10:05:10.666Z,35.63
2018-02-19T10:07:38.873Z,35.03
2018-02-19T10:10:07.077Z,32.70
2018-02-19T10:12:36.263Z,34.67
2018-02-19T10:15:04.639Z,31.37
2018-02-19T10:17:33.812Z,36.80
2018-02-19T10:20:03.998Z,38.00
2018-02-19T10:22:38.972Z,31.07
2018-02-19T10:25:08.986Z,30.43
2018-02-19T10:27:40.930Z,34.27
2018-02-19T10:30:09.271Z,36.00
2018-02-19T10:32:42.655Z,36.60
2018-02-19T10:35:11.934Z,31.37
2018-02-19T10:37:40.978Z,33.10
2018-02-19T10:40:09.104Z,44.07
2018-02-19T10:42:41.009Z,34.70
2018-02-19T10:45:09.236Z,41.00
2018-02-19T10:47:38.213Z,32.90
2018-02-19T10:50:07.639Z,33.87
2018-02-19T10:52:40.675Z,33.90
2018-02-19T10:55:11.767Z,31.07
2018-02-19T10:57:40.911Z,42.97
2018-02-19T11:00:12.422Z,37.60
2018-02-19T11:02:40.760Z,36.63
2018-02-19T11:05:08.921Z,33.20
2018-02-19T11:07:44.088Z,32.57
2018-02-19T11:10:13.837Z,35.70
2018-02-19T11:12:42.071Z,37.23
2018-02-19T11:15:33.820Z,31.00
2018-02-19T11:18:01.983Z,34.07
2018-02-19T11:20:31.276Z,34.90
2018-02-19T11:23:03.436Z,30.90
2018-02-19T11:25:31.699Z,33.20
2018-02-19T11:27:59.790Z,33.80
2018-02-19T11:30:28.138Z,31.13
2018-02-19T11:33:02.156Z,37.53
2018-02-19T11:38:07.080Z,37.30
2018-02-19T11:40:35.505Z,33.40
2018-02-19T11:43:04.469Z,35.03
2018-02-19T11:45:33.791Z,30.23
2018-02-19T11:48:01.905Z,43.50
2018-02-19T11:50:32.412Z,38.33
2018-02-19T11:53:07.483Z,34.80
2018-02-19T11:55:36.537Z,35.50
2018-02-19T11:58:05.613Z,39.40
2018-02-19T12:03:13.649Z,32.40
2018-02-19T12:05:42.770Z,37.00
2018-02-19T12:08:11.651Z,36.23
2018-02-19T12:10:43.461Z,39.73
2018-02-19T12:13:12.461Z,40.30
2018-02-19T12:15:40.568Z,38.30
2018-02-19T12:18:11.172Z,36.03
2018-02-19T12:20:40.064Z,35.03
2018-02-19T12:23:08.176Z,36.60
2018-02-19T12:25:36.264Z,38.83
2018-02-19T12:28:04.388Z,36.23
2018-02-19T12:30:35.120Z,32.30
2018-02-19T12:33:06.717Z,38.63
2018-02-19T12:35:34.962Z,58.53
2018-02-19T12:38:09.771Z,38.57
2018-02-19T12:43:33.761Z,33.10
2018-02-19T12:46:10.954Z,37.93
2018-02-19T12:48:39.988Z,36.53
2018-02-19T12:54:18.479Z,34.67
2018-02-19T12:56:46.639Z,31.20
2018-02-19T12:59:14.939Z,34.70
2018-02-19T13:01:43.148Z,35.00
2018-02-19T13:04:14.352Z,31.63
2018-02-19T13:06:43.576Z,42.10
2018-02-19T13:09:12.157Z,35.63
2018-02-19T13:11:41.186Z,32.53
2018-02-19T13:14:09.335Z,39.20
2018-02-19T13:16:40.852Z,37.50
2018-02-19T13:19:08.935Z,38.00
2018-02-19T13:21:37.076Z,35.83
2018-02-19T13:26:41.756Z,40.20
2018-02-19T13:29:11.913Z,37.67
2018-02-19T13:31:51.180Z,34.00
2018-02-19T13:34:20.724Z,37.77
2018-02-19T13:36:48.884Z,30.47
2018-02-19T13:39:18.483Z,32.57
2018-02-19T13:41:52.977Z,32.63
2018-02-19T13:44:21.987Z,27.63
2018-02-19T13:46:51.023Z,31.93
2018-02-19T13:49:19.132Z,30.40
2018-02-19T13:55:04.326Z,34.43
2018-02-19T13:57:32.431Z,32.30
2018-02-19T14:00:04.264Z,33.70
2018-02-19T14:02:32.385Z,32.40
2018-02-19T14:05:02.636Z,35.10
2018-02-19T14:07:32.646Z,33.00
2018-02-19T14:10:00.980Z,35.00
2018-02-19T14:12:32.766Z,35.73
2018-02-19T14:17:37.816Z,31.77
2018-02-19T14:20:06.007Z,33.17
2018-02-19T14:22:34.166Z,35.30
2018-02-19T14:25:03.126Z,39.33
2018-02-19T14:27:31.252Z,31.83
2018-02-19T14:29:59.789Z,34.17
2018-02-19T14:32:31.794Z,31.80
2018-02-19T14:35:09.735Z,33.83
2018-02-19T14:40:14.572Z,33.80
2018-02-19T14:42:47.712Z,29.00
2018-02-19T14:45:17.052Z,31.10
2018-02-19T14:47:45.175Z,33.60
2018-02-19T14:50:16.032Z,34.80
2018-02-19T14:52:44.900Z,29.00
2018-02-19T14:55:13.337Z,33.60
2018-02-19T14:57:44.775Z,32.67
2018-02-19T15:02:55.036Z,31.50
2018-02-19T15:05:26.037Z,34.87
2018-02-19T15:07:57.200Z,36.80
2018-02-19T15:10:28.129Z,31.53
2018-02-19T15:13:03.224Z,36.00
2018-02-19T15:18:10.115Z,33.33
2018-02-19T15:20:39.789Z,34.80
2018-02-19T15:23:11.323Z,34.63
2018-02-19T15:25:46.919Z,30.03
2018-02-19T15:28:15.213Z,34.73
2018-02-19T15:30:43.317Z,46.87
2018-02-19T15:33:11.544Z,33.67
2018-02-19T15:44:27.685Z,36.07
2018-02-19T15:46:56.725Z,32.70
2018-02-19T15:49:24.999Z,36.30
2018-02-19T15:54:32.105Z,35.80
2018-02-19T15:57:00.270Z,31.80
2018-02-19T15:59:33.977Z,32.87
2018-02-19T16:02:02.439Z,31.30
2018-02-19T16:04:31.768Z,29.47
2018-02-19T16:07:03.217Z,33.00
2018-02-19T16:09:34.743Z,36.43
2018-02-19T16:12:03.112Z,32.77
2018-02-19T16:14:33.307Z,38.77
2018-02-19T16:17:01.454Z,29.30
2018-02-19T16:19:32.071Z,38.83
2018-02-19T16:22:00.293Z,31.70
2018-02-19T16:24:33.032Z,39.10
2018-02-19T16:27:04.306Z,37.90
2018-02-19T16:29:33.068Z,34.00
2018-02-19T16:32:02.174Z,39.70
2018-02-19T16:34:31.251Z,34.50
2018-02-19T16:37:01.428Z,32.23
2018-02-19T16:39:32.924Z,35.07
2018-02-19T16:42:02.932Z,40.27
2018-02-19T16:44:35.148Z,34.20
2018-02-19T16:47:05.574Z,32.23
2018-02-19T16:49:43.340Z,34.20
2018-02-19T16:57:22.488Z,33.40
2018-02-19T16:59:50.666Z,36.10
2018-02-19T17:02:24.154Z,31.03
2018-02-19T17:04:54.281Z,33.93
2018-02-19T17:07:28.204Z,36.93
2018-02-19T17:10:02.529Z,34.73
2018-02-19T17:12:31.356Z,32.63
2018-02-19T17:14:59.549Z,33.13
2018-02-19T17:17:27.732Z,30.40
2018-02-19T17:19:58.255Z,41.53
2018-02-19T17:22:38.593Z,41.57
2018-02-19T17:25:07.777Z,33.57
2018-02-19T17:27:35.929Z,37.93
2018-02-19T17:30:06.455Z,36.20
2018-02-19T17:32:35.770Z,35.70
2018-02-19T17:35:14.049Z,38.63
2018-02-19T17:37:48.582Z,36.90
2018-02-19T17:40:16.769Z,37.93
2018-02-19T17:42:44.914Z,40.40
2018-02-19T17:45:13.157Z,36.53
2018-02-19T17:47:41.320Z,37.30
2018-02-19T17:50:13.565Z,30.10
2018-02-19T17:52:41.804Z,33.77
2018-02-19T17:55:11.998Z,32.30
2018-02-19T17:57:42.143Z,40.20
2018-02-19T18:00:10.345Z,34.87
2018-02-19T18:02:39.262Z,35.47
2018-02-19T18:05:13.109Z,34.20
2018-02-19T18:07:42.194Z,33.10
2018-02-19T18:10:11.764Z,34.20
2018-02-19T18:12:40.992Z,30.53
2018-02-19T18:15:15.063Z,33.03
2018-02-19T18:17:51.231Z,36.63
2018-02-19T18:20:21.670Z,32.23
2018-02-19T18:23:03.115Z,30.90
2018-02-19T18:31:43.628Z,34.83
2018-02-19T18:34:15.130Z,35.37
2018-02-19T18:36:49.107Z,33.40
2018-02-19T18:39:17.519Z,38.50
2018-02-19T18:42:01.093Z,34.47
2018-02-19T18:44:33.012Z,36.07
2018-02-19T18:47:01.148Z,40.00
2018-02-19T18:49:30.012Z,38.30
2018-02-19T18:52:09.315Z,40.87
2018-02-19T18:54:39.713Z,36.07
2018-02-19T18:57:31.567Z,34.60
2018-02-19T19:00:00.783Z,35.10
2018-02-19T19:02:35.839Z,35.53
2018-02-19T19:05:13.921Z,36.60
2018-02-19T19:07:54.650Z,35.57
2018-02-19T19:10:36.343Z,35.80
2018-02-19T19:13:05.503Z,35.93
2018-02-19T19:15:34.775Z,34.40
2018-02-19T19:18:05.702Z,38.17
2018-02-19T19:20:37.140Z,37.73
2018-02-19T19:23:05.264Z,38.23
2018-02-19T19:25:33.397Z,39.20
2018-02-19T19:28:12.505Z,37.87
2018-02-19T19:30:41.856Z,37.90
2018-02-19T19:33:28.320Z,33.27
2018-02-19T19:36:15.612Z,32.50
2018-02-19T19:38:47.186Z,38.77
2018-02-19T19:41:31.789Z,36.00
2018-02-19T19:43:59.916Z,37.70
2018-02-19T19:46:29.993Z,33.70
2018-02-19T19:48:59.511Z,33.30
2018-02-19T19:54:38.047Z,36.70
2018-02-19T19:57:09.540Z,36.37
2018-02-19T19:59:43.450Z,41.33
2018-02-19T20:02:11.548Z,36.30
2018-02-19T20:04:39.663Z,36.03
2018-02-19T20:07:13.962Z,37.73
2018-02-19T20:09:43.107Z,35.30
2018-02-19T20:12:13.929Z,36.77
2018-02-19T20:14:42.997Z,41.53
2018-02-19T20:17:18.388Z,36.23
2018-02-19T20:19:49.708Z,36.10
2018-02-19T20:22:35.234Z,39.37
2018-02-19T20:25:03.343Z,42.47
2018-02-19T20:27:34.190Z,36.27
2018-02-19T20:30:08.515Z,37.03
2018-02-19T20:32:39.817Z,37.10
2018-02-19T20:38:08.027Z,36.80
2018-02-19T20:40:36.120Z,34.93
2018-02-19T20:43:04.261Z,39.67
2018-02-19T20:45:32.416Z,38.90
2018-02-19T20:48:02.583Z,35.20
2018-02-19T20:50:31.685Z,40.50
2018-02-19T20:53:00.730Z,36.17
2018-02-19T20:55:32.418Z,34.40
2018-02-19T20:58:05.226Z,34.20
2018-02-19T21:00:33.420Z,39.30
2018-02-19T21:03:01.535Z,41.93
2018-02-19T21:05:34.376Z,38.23
2018-02-19T21:08:07.112Z,38.20
2018-02-19T21:10:37.964Z,38.00
2018-02-19T21:13:14.748Z,39.57
2018-02-19T21:16:03.622Z,40.67
2018-02-19T21:18:32.891Z,39.93
2018-02-19T21:21:01.610Z,34.43
2018-02-19T21:23:29.691Z,39.53
2018-02-19T21:25:58.076Z,36.63
2018-02-19T21:28:26.193Z,39.00
2018-02-19T21:31:13.291Z,38.50
2018-02-19T21:33:41.471Z,38.60
2018-02-19T21:36:09.684Z,37.40
2018-02-19T21:38:37.815Z,35.23
2018-02-19T21:41:27.623Z,37.83
2018-02-19T21:44:01.584Z,40.13
2018-02-19T21:46:48.013Z,39.67
2018-02-19T21:49:23.365Z,34.20
2018-02-19T21:51:57.591Z,40.00
2018-02-19T21:54:37.690Z,40.03
2018-02-19T21:57:05.819Z,37.97
2018-02-19T21:59:34.887Z,43.53
2018-02-19T22:02:03.883Z,38.37
2018-02-19T22:04:39.836Z,37.60
2018-02-19T22:07:11.942Z,37.00
2018-02-19T22:09:46.371Z,38.97
2018-02-19T22:12:14.479Z,40.80
2018-02-19T22:14:42.622Z,33.10
2018-02-19T22:17:15.160Z,38.80
2018-02-19T22:20:02.409Z,37.97
2018-02-19T22:22:34.953Z,41.53
2018-02-19T22:25:27.301Z,41.67
2018-02-19T22:28:01.024Z,40.93
2018-02-19T22:30:34.964Z,39.73
2018-02-19T22:33:11.260Z,46.53
2018-02-19T22:35:44.616Z,42.27
2018-02-19T22:38:17.602Z,45.43
2018-02-19T22:40:46.702Z,39.17
2018-02-19T22:43:16.551Z,42.87
2018-02-19T22:45:46.646Z,41.67
2018-02-19T22:48:16.448Z,43.07
2018-02-19T22:50:44.569Z,41.13
2018-02-19T22:53:13.420Z,40.97
2018-02-19T22:55:46.428Z,44.07
2018-02-19T22:58:14.523Z,45.20
2018-02-19T23:00:44.683Z,38.50
2018-02-19T23:03:19.339Z,36.93
2018-02-19T23:05:48.565Z,39.27
2018-02-19T23:11:17.422Z,41.53
2018-02-19T23:13:58.035Z,43.23
2018-02-19T23:16:26.166Z,43.83
2018-02-19T23:18:55.313Z,44.53
2018-02-19T23:21:27.934Z,43.07
2018-02-19T23:24:13.587Z,42.97
2018-02-19T23:26:41.840Z,43.77
2018-02-19T23:29:09.951Z,39.17
2018-02-19T23:31:39.202Z,40.93
2018-02-19T23:34:15.101Z,45.30
2018-02-19T23:37:00.650Z,41.30
2018-02-19T23:39:32.776Z,40.77
2018-02-19T23:42:04.816Z,43.60
2018-02-19T23:44:47.852Z,41.50
2018-02-19T23:50:36.527Z,45.00
2018-02-19T23:53:04.676Z,45.07
2018-02-19T23:55:40.930Z,43.80
2018-02-19T23:58:20.479Z,40.30
